»·PEaware :: VVM717 KABQ-KAPA

VVM717 :: KABQ-KAPA

FLIGHT INFORMATION

Flight Status: Arrived
Operator:
Viva Macau
More flights by this operator :: More flights under this callsign
Pilot: Ty S. (2873)
Aircraft: BOEING 737-200
(B732)
More flights by this aircraft type
Origin: KABQ Albuquerque Intl Sunport
United States
Destination: KAPA Centennial
United States
More flights between these airports :: More routes between these airports
Route: LARGO3 RSK LARKS2
File this flight plan on PilotEdge
Remarks:
Altitude:
(Current/Filed)
35,000ft
Speed:
(Current/Filed)
450kts
Departed: 07-Feb-20 06:18 PM
Arrived: 07-Feb-20 07:21 PM
Distance/Time
Traveled:
284nm/1:03
Distance/Time
To Go:
Arrived

Flight Plot

Page will automatically refresh every two minutes.

Flight plan parsing failed; only flown route is shown


Map Options




Map Legend


Flown Route
Filed Route
Departure Airport
Arrival Airport
Navaid (VOR, NDB)
Fix

Horizontal Profiles

Position Reports

Time Latitude Longitude Heading Altitude Ground
Speed
07-Feb-20 18:00 35.035776 -106.618970 231 5363ft 0kts
07-Feb-20 18:01 35.035776 -106.618970 231 5363ft 0kts
07-Feb-20 18:02 35.035776 -106.618970 231 5363ft 0kts
07-Feb-20 18:03 35.035776 -106.618970 231 5363ft 0kts
07-Feb-20 18:04 35.035776 -106.618970 231 5363ft 0kts
07-Feb-20 18:05 35.035776 -106.618970 231 5363ft 0kts
07-Feb-20 18:06 35.035776 -106.618970 231 5363ft 0kts
07-Feb-20 18:07 35.035776 -106.618970 231 5363ft 0kts
07-Feb-20 18:08 35.035776 -106.618970 231 5363ft 0kts
07-Feb-20 18:09 35.035776 -106.618970 231 5363ft 0kts
07-Feb-20 18:10 35.035776 -106.618970 231 5363ft 0kts
07-Feb-20 18:11 35.035776 -106.618970 231 5363ft 0kts
07-Feb-20 18:12 35.035770 -106.618978 231 5363ft 0kts
07-Feb-20 18:13 35.034583 -106.618805 135 5363ft 0kts
07-Feb-20 18:14 35.031288 -106.621827 224 5363ft 28kts
07-Feb-20 18:15 35.027169 -106.626815 226 5363ft 19kts
07-Feb-20 18:16 35.023230 -106.631271 176 5363ft 0kts
07-Feb-20 18:17 35.026064 -106.626030 44 5363ft 91kts
07-Feb-20 18:18 35.058433 -106.592086 3 6625ft 179kts
07-Feb-20 18:19 35.102366 -106.637429 308 8595ft 247kts
07-Feb-20 18:20 35.150130 -106.699047 325 11289ft 258kts
07-Feb-20 18:21 35.221578 -106.744810 328 12698ft 313kts
07-Feb-20 18:22 35.301243 -106.792441 328 15029ft 323kts
07-Feb-20 18:23 35.381738 -106.842927 321 17086ft 327kts
07-Feb-20 18:24 35.453334 -106.913805 319 18857ft 335kts
07-Feb-20 18:25 35.528229 -106.984629 321 20378ft 345kts
07-Feb-20 18:26 35.607582 -107.053220 324 21729ft 353kts
07-Feb-20 18:27 35.690302 -107.120147 325 22959ft 358kts
07-Feb-20 18:28 35.773948 -107.188484 324 24034ft 363kts
07-Feb-20 18:29 35.856376 -107.261770 321 24971ft 367kts
07-Feb-20 18:30 35.936647 -107.340216 320 25811ft 371kts
07-Feb-20 18:31 36.016875 -107.421216 320 26528ft 375kts
07-Feb-20 18:32 36.099845 -107.501127 322 27162ft 378kts
07-Feb-20 18:33 36.185140 -107.576369 324 28233ft 370kts
07-Feb-20 18:34 36.269573 -107.649567 323 28820ft 373kts
07-Feb-20 18:35 36.350502 -107.724952 321 29984ft 363kts
07-Feb-20 18:36 36.430213 -107.801558 321 30802ft 366kts
07-Feb-20 18:37 36.510618 -107.876973 322 32042ft 356kts
07-Feb-20 18:38 36.590398 -107.950860 322 32564ft 362kts
07-Feb-20 18:39 36.670778 -108.026147 322 33158ft 364kts
07-Feb-20 18:40 36.751916 -108.102423 322 33648ft 367kts
07-Feb-20 18:41 36.841910 -108.141508 11 34607ft 382kts
07-Feb-20 18:42 36.912978 -108.029476 53 34739ft 441kts
07-Feb-20 18:43 36.969054 -107.893517 37 35068ft 421kts
07-Feb-20 18:44 37.060590 -107.808773 23 35077ft 411kts
07-Feb-20 18:45 37.154572 -107.730247 23 35074ft 409kts
07-Feb-20 18:46 37.247662 -107.648528 25 35073ft 411kts
07-Feb-20 18:47 37.339642 -107.563062 26 35074ft 413kts
07-Feb-20 18:48 37.431495 -107.475351 26 35073ft 415kts
07-Feb-20 18:49 37.523431 -107.387616 26 35074ft 417kts
07-Feb-20 18:50 37.613825 -107.301878 26 35073ft 417kts
07-Feb-20 18:51 37.706443 -107.214508 26 35095ft 416kts
07-Feb-20 18:52 37.799346 -107.127781 26 35134ft 414kts
07-Feb-20 18:53 37.891810 -107.041826 26 35158ft 413kts
07-Feb-20 18:54 37.984357 -106.955185 25 35124ft 414kts
07-Feb-20 18:55 38.076504 -106.867459 25 35076ft 415kts
07-Feb-20 18:56 38.165146 -106.782879 25 35076ft 414kts
07-Feb-20 18:57 38.257923 -106.695079 25 35099ft 414kts
07-Feb-20 18:58 38.350354 -106.607691 25 35118ft 414kts
07-Feb-20 18:59 38.442697 -106.520045 25 35130ft 415kts
07-Feb-20 19:00 38.524673 -106.410217 35 35136ft 432kts
07-Feb-20 19:01 38.602161 -106.305951 33 34111ft 426kts
07-Feb-20 19:02 38.685444 -106.200909 32 33274ft 418kts
07-Feb-20 19:03 38.766192 -106.095176 35 31700ft 416kts
07-Feb-20 19:04 38.840705 -105.983830 40 29970ft 409kts
07-Feb-20 19:05 38.908312 -105.867498 43 27904ft 405kts
07-Feb-20 19:06 38.971586 -105.749117 44 25893ft 397kts
07-Feb-20 19:07 39.035016 -105.636422 41 24008ft 382kts
07-Feb-20 19:08 39.099871 -105.536730 37 22159ft 368kts
07-Feb-20 19:09 39.169038 -105.443827 36 20195ft 353kts
07-Feb-20 19:10 39.233971 -105.351175 58 16739ft 357kts
07-Feb-20 19:11 39.262979 -105.233506 68 15500ft 334kts
07-Feb-20 19:12 39.288396 -105.122748 68 12997ft 314kts
07-Feb-20 19:13 39.299512 -105.012954 84 10520ft 310kts
07-Feb-20 19:14 39.297763 -104.915904 88 10343ft 229kts
07-Feb-20 19:15 39.340513 -104.873895 19 9936ft 200kts
07-Feb-20 19:16 39.394307 -104.853800 18 8513ft 189kts
07-Feb-20 19:17 39.448793 -104.846979 351 8142ft 182kts
07-Feb-20 19:18 39.497195 -104.848003 352 7017ft 172kts
07-Feb-20 19:19 39.542774 -104.849329 355 6182ft 158kts
07-Feb-20 19:20 39.576245 -104.851077 358 5893ft 30kts
07-Feb-20 19:21 39.576206 -104.849719 176 5893ft 21kts
07-Feb-20 19:23 39.570768 -104.848484 156 5893ft 15kts
07-Feb-20 19:24 39.569593 -104.848248 178 5893ft 0kts

Navigation Log

Ident Type
Flight plan parsing failed, navigation log unavailable